Time;durP1;ratioP1;P1;durP2;ratioP2;P2;SDS_P1;SDS_P2;PMS_P1;PMS_P2;Temp;Humidity;BMP_temperature;BMP_pressure;BME280_temperature;BME280_humidity;BME280_pressure;Samples;Min_cycle;Max_cycle;Signal;HPM_P1;HPM_P2
2022/11/30 00:01:20;;;;;;;22.07;18.73;;;8.00;99.90;;;;;;5100013;28;20753;-42
2022/11/30 00:03:48;;;;;;;21.33;17.30;;;7.90;99.90;;;;;;5099670;28;20408;-43
2022/11/30 00:06:15;;;;;;;20.37;17.03;;;8.00;99.90;;;;;;5100500;28;20395;-44
2022/11/30 00:08:41;;;;;;;22.57;18.07;;;7.90;99.90;;;;;;5081835;28;20533;-43
2022/11/30 00:11:12;;;;;;;21.07;18.20;;;8.00;99.90;;;;;;5099923;28;20496;-43
2022/11/30 00:13:38;;;;;;;22.20;18.37;;;8.00;99.90;;;;;;5099151;28;20789;-43
2022/11/30 00:16:04;;;;;;;22.90;19.00;;;7.90;99.90;;;;;;5098858;28;20434;-42
2022/11/30 00:18:30;;;;;;;22.80;18.90;;;8.00;99.90;;;;;;5099531;28;20855;-43
2022/11/30 00:21:02;;;;;;;21.90;17.33;;;7.90;99.90;;;;;;5098908;28;20472;-44
2022/11/30 00:23:31;;;;;;;21.07;17.40;;;7.90;99.90;;;;;;5097769;28;20175;-42
2022/11/30 00:26:00;;;;;;;21.40;17.33;;;7.90;99.90;;;;;;5099995;28;20501;-43
2022/11/30 00:28:26;;;;;;;21.10;18.80;;;7.90;1.00;;;;;;5098193;28;20571;-42
2022/11/30 00:31:05;;;;;;;23.50;18.63;;;7.90;99.90;;;;;;5098335;28;20568;-44
2022/11/30 00:33:32;;;;;;;19.80;17.13;;;7.90;99.90;;;;;;5097509;28;20180;-44
2022/11/30 00:36:04;;;;;;;21.77;17.33;;;7.90;1.00;;;;;;5097326;28;20434;-42
2022/11/30 00:38:31;;;;;;;20.13;17.33;;;7.90;1.00;;;;;;5097832;28;20417;-42
2022/11/30 00:40:56;;;;;;;21.87;19.03;;;7.90;99.90;;;;;;5097590;28;20572;-43
2022/11/30 00:43:22;;;;;;;21.23;17.67;;;7.90;99.90;;;;;;5099274;28;20555;-44
2022/11/30 00:45:48;;;;;;;24.33;18.43;;;7.90;99.90;;;;;;5099085;28;20253;-42
2022/11/30 00:48:13;;;;;;;21.53;18.23;;;7.90;99.90;;;;;;5098831;28;20450;-43
2022/11/30 00:50:39;;;;;;;22.93;18.40;;;7.90;99.90;;;;;;5099306;28;20198;-45
2022/11/30 00:53:05;;;;;;;24.53;18.53;;;7.90;99.90;;;;;;5098001;28;20510;-42
2022/11/30 00:55:32;;;;;;;21.77;18.37;;;7.90;99.90;;;;;;5097649;28;20525;-43
2022/11/30 00:57:58;;;;;;;23.60;17.90;;;7.90;99.90;;;;;;5097248;28;20212;-41
2022/11/30 01:00:23;;;;;;;24.63;20.07;;;7.90;99.90;;;;;;5097929;28;20577;-42
2022/11/30 01:02:58;;;;;;;23.77;18.67;;;7.90;99.90;;;;;;5098343;28;20461;-45
2022/11/30 01:05:24;;;;;;;22.43;17.90;;;7.90;99.90;;;;;;5098422;28;20422;-46
2022/11/30 01:07:49;;;;;;;20.33;17.30;;;7.90;99.90;;;;;;5098775;28;20422;-42
2022/11/30 01:10:16;;;;;;;20.90;16.70;;;7.80;99.90;;;;;;5099091;28;20414;-45
2022/11/30 01:12:41;;;;;;;23.60;18.83;;;7.80;99.90;;;;;;5098800;28;20563;-45
2022/11/30 01:15:08;;;;;;;24.07;17.97;;;7.80;1.00;;;;;;5098352;28;20418;-42
2022/11/30 01:17:33;;;;;;;24.20;19.27;;;7.90;1.00;;;;;;5098871;28;20184;-45
2022/11/30 01:19:59;;;;;;;23.10;18.20;;;7.80;1.00;;;;;;5099008;28;20886;-42
2022/11/30 01:22:25;;;;;;;23.90;18.40;;;7.80;1.00;;;;;;5098844;28;20176;-41
2022/11/30 01:24:50;;;;;;;22.00;17.43;;;7.80;1.00;;;;;;5098050;28;20519;-45
2022/11/30 01:27:16;;;;;;;23.30;17.50;;;7.80;1.00;;;;;;5099027;28;20176;-42
2022/11/30 01:29:42;;;;;;;22.10;17.43;;;7.80;1.00;;;;;;5098271;28;20601;-44
2022/11/30 01:32:07;;;;;;;22.67;17.40;;;7.80;1.00;;;;;;5097969;28;20475;-42
2022/11/30 01:34:33;;;;;;;20.10;16.50;;;7.80;99.90;;;;;;5098596;28;20229;-43
2022/11/30 01:36:59;;;;;;;23.07;17.13;;;7.80;1.00;;;;;;5098393;28;20193;-43
2022/11/30 01:39:24;;;;;;;21.10;17.30;;;7.80;99.90;;;;;;5097892;28;20475;-43
2022/11/30 01:41:52;;;;;;;22.67;16.90;;;7.80;99.90;;;;;;5098580;28;20299;-43
2022/11/30 01:44:17;;;;;;;25.30;18.00;;;7.80;99.90;;;;;;5098585;28;20219;-42
2022/11/30 01:46:54;;;;;;;21.57;17.83;;;7.80;99.90;;;;;;5098588;28;20423;-44
2022/11/30 01:49:27;;;;;;;25.17;19.53;;;7.80;1.00;;;;;;5097642;28;20230;-42
2022/11/30 01:51:57;;;;;;;21.80;18.10;;;7.80;1.00;;;;;;5098324;28;20426;-42
2022/11/30 01:54:27;;;;;;;21.03;16.23;;;7.80;1.00;;;;;;5097628;28;20856;-46
2022/11/30 01:56:55;;;;;;;16.97;14.53;;;7.80;1.00;;;;;;5097974;28;20470;-42
2022/11/30 01:59:22;;;;;;;20.87;16.93;;;7.80;1.00;;;;;;5097499;28;20437;-46
2022/11/30 02:01:48;;;;;;;22.90;17.37;;;7.80;1.00;;;;;;5098515;28;20501;-43
2022/11/30 02:04:27;;;;;;;21.37;17.30;;;7.80;1.00;;;;;;5098465;28;20487;-43
2022/11/30 02:06:53;;;;;;;19.80;17.20;;;7.80;1.00;;;;;;5098789;28;20188;-45
2022/11/30 02:09:19;;;;;;;24.30;17.80;;;7.80;1.00;;;;;;5098399;28;20410;-42
2022/11/30 02:11:45;;;;;;;23.73;18.57;;;7.80;1.00;;;;;;5097958;28;20758;-42
2022/11/30 02:14:26;;;;;;;24.80;18.60;;;7.80;99.90;;;;;;5098047;28;20426;-43
2022/11/30 02:17:16;;;;;;;22.33;17.83;;;7.80;99.90;;;;;;5096729;28;20516;-45
2022/11/30 02:19:48;;;;;;;23.17;17.50;;;7.80;99.90;;;;;;5097039;28;20769;-43
2022/11/30 02:22:42;;;;;;;26.37;19.93;;;7.80;99.90;;;;;;5098009;28;20839;-42
2022/11/30 02:28:39;;;;;;;26.57;19.27;;;7.80;99.90;;;;;;5097223;28;20393;-45
2022/11/30 02:31:09;;;;;;;25.43;19.93;;;7.80;99.90;;;;;;5097550;28;20446;-42
2022/11/30 02:33:35;;;;;;;25.43;18.23;;;7.80;99.90;;;;;;5097702;28;20421;-43
2022/11/30 02:36:02;;;;;;;25.07;19.87;;;7.70;99.90;;;;;;5095680;28;20414;-43
2022/11/30 02:38:28;;;;;;;26.87;20.27;;;7.70;99.90;;;;;;5098526;28;20505;-43
2022/11/30 02:40:54;;;;;;;26.83;19.10;;;7.70;99.90;;;;;;5099725;28;20469;-43
2022/11/30 02:43:21;;;;;;;27.43;20.00;;;7.80;99.90;;;;;;5100238;28;20850;-42
2022/11/30 02:46:00;;;;;;;26.37;20.00;;;7.70;99.90;;;;;;5099504;28;20418;-45
2022/11/30 02:48:36;;;;;;;27.53;20.70;;;7.70;99.90;;;;;;5099016;28;20449;-42
2022/11/30 02:51:03;;;;;;;22.37;19.23;;;7.70;99.90;;;;;;5100290;28;20425;-41
2022/11/30 02:53:29;;;;;;;26.87;20.10;;;7.70;99.90;;;;;;5101536;28;20445;-44
2022/11/30 02:55:55;;;;;;;23.73;18.97;;;7.70;99.90;;;;;;5100408;28;20458;-42
2022/11/30 02:58:21;;;;;;;25.37;19.53;;;7.70;99.90;;;;;;5100251;28;20422;-43
2022/11/30 03:00:47;;;;;;;23.40;18.63;;;7.70;99.90;;;;;;5101057;28;20259;-43
2022/11/30 03:03:13;;;;;;;24.60;19.80;;;7.70;99.90;;;;;;5099742;28;20414;-42
2022/11/30 03:05:38;;;;;;;23.47;19.23;;;7.70;99.90;;;;;;5100125;28;20734;-43
2022/11/30 03:08:04;;;;;;;26.53;19.80;;;7.70;99.90;;;;;;5099583;28;20183;-42
2022/11/30 03:10:30;;;;;;;20.10;17.67;;;7.70;99.90;;;;;;5100055;28;20585;-43
2022/11/30 03:12:59;;;;;;;22.77;18.20;;;7.70;99.90;;;;;;5099618;28;20563;-42
2022/11/30 03:15:25;;;;;;;21.33;18.23;;;7.70;99.90;;;;;;5099592;28;20168;-43
2022/11/30 03:17:51;;;;;;;22.33;17.20;;;7.70;99.90;;;;;;5100349;28;20407;-45
2022/11/30 03:20:17;;;;;;;22.40;18.30;;;7.70;1.00;;;;;;5100722;28;20461;-43
2022/11/30 03:22:42;;;;;;;22.50;18.10;;;7.70;1.00;;;;;;5101145;28;20185;-45
2022/11/30 03:25:08;;;;;;;22.67;18.80;;;7.70;1.00;;;;;;5100599;28;20517;-43
2022/11/30 03:27:34;;;;;;;23.70;17.30;;;7.70;1.00;;;;;;5099276;28;20264;-46
2022/11/30 03:29:59;;;;;;;21.43;17.40;;;7.70;1.00;;;;;;5099542;28;20423;-43
2022/11/30 03:32:25;;;;;;;22.93;18.93;;;7.70;1.00;;;;;;5099663;28;20226;-44
2022/11/30 03:34:50;;;;;;;21.60;17.67;;;7.70;1.00;;;;;;5100262;28;20185;-42
2022/11/30 03:37:16;;;;;;;22.30;18.20;;;7.70;99.90;;;;;;5099853;28;20184;-44
2022/11/30 03:39:42;;;;;;;20.67;17.63;;;7.70;99.90;;;;;;5099811;28;20257;-43
2022/11/30 03:42:07;;;;;;;20.00;16.80;;;7.70;99.90;;;;;;5100486;28;20218;-44
2022/11/30 03:44:33;;;;;;;19.90;16.90;;;7.70;99.90;;;;;;5100584;28;20185;-42
2022/11/30 03:46:59;;;;;;;22.27;17.03;;;7.60;1.00;;;;;;5100472;28;20474;-42
2022/11/30 03:49:24;;;;;;;20.30;17.00;;;7.60;1.00;;;;;;5098792;28;20195;-42
2022/11/30 03:51:50;;;;;;;18.90;15.00;;;7.70;1.00;;;;;;5100195;28;20184;-42
2022/11/30 03:54:15;;;;;;;22.33;17.43;;;7.70;1.00;;;;;;5100379;28;20512;-42
2022/11/30 03:56:41;;;;;;;19.50;16.50;;;7.70;1.00;;;;;;5098735;28;20236;-45
2022/11/30 03:59:07;;;;;;;18.73;15.13;;;7.70;1.00;;;;;;5100137;28;20180;-42
2022/11/30 04:01:32;;;;;;;18.80;15.90;;;7.70;1.00;;;;;;5099883;28;20272;-44
2022/11/30 04:03:58;;;;;;;19.57;15.37;;;7.70;1.00;;;;;;5098843;28;20176;-43
2022/11/30 04:06:24;;;;;;;18.73;15.00;;;7.70;1.00;;;;;;5099147;28;20180;-42
2022/11/30 04:08:49;;;;;;;18.90;15.43;;;7.70;1.00;;;;;;5098635;28;20573;-43
2022/11/30 04:11:15;;;;;;;21.07;16.17;;;7.70;1.00;;;;;;5098129;28;20245;-43
2022/11/30 04:13:41;;;;;;;20.10;15.70;;;7.70;1.00;;;;;;5098673;28;20176;-44
2022/11/30 04:16:08;;;;;;;17.67;15.13;;;7.70;1.00;;;;;;5098131;28;20429;-42
2022/11/30 04:18:34;;;;;;;18.00;15.50;;;7.70;1.00;;;;;;5097852;28;20410;-45
2022/11/30 04:21:00;;;;;;;15.67;13.97;;;7.70;1.00;;;;;;5097697;28;20534;-42
2022/11/30 04:23:29;;;;;;;16.13;14.17;;;7.70;1.00;;;;;;5098658;28;20435;-46
2022/11/30 04:25:56;;;;;;;17.87;15.47;;;7.70;1.00;;;;;;5098754;28;20805;-42
2022/11/30 04:28:21;;;;;;;16.03;13.80;;;7.70;1.00;;;;;;5097523;28;20422;-45
2022/11/30 04:30:47;;;;;;;17.50;13.30;;;7.70;1.00;;;;;;5097463;28;20414;-42
2022/11/30 04:33:14;;;;;;;15.97;14.03;;;7.70;1.00;;;;;;5097144;28;20184;-42
2022/11/30 04:35:45;;;;;;;15.63;13.77;;;7.70;1.00;;;;;;5097717;28;20190;-44
2022/11/30 04:38:11;;;;;;;16.33;13.77;;;7.70;1.00;;;;;;5098542;28;20422;-44
2022/11/30 04:40:40;;;;;;;15.30;13.70;;;7.70;1.00;;;;;;5098470;28;20481;-43
2022/11/30 04:43:07;;;;;;;15.93;13.97;;;7.70;1.00;;;;;;5096586;28;20187;-41
2022/11/30 04:45:32;;;;;;;15.60;13.00;;;7.70;1.00;;;;;;5098341;28;20449;-42
2022/11/30 04:47:58;;;;;;;14.63;13.00;;;7.70;1.00;;;;;;5097530;28;20506;-44
2022/11/30 04:50:24;;;;;;;16.07;13.47;;;7.70;1.00;;;;;;5097987;28;20290;-46
2022/11/30 04:52:49;;;;;;;14.27;12.20;;;7.70;1.00;;;;;;5099014;28;20462;-44
2022/11/30 04:55:18;;;;;;;15.73;11.57;;;7.70;1.00;;;;;;5097665;28;20832;-44
2022/11/30 04:57:45;;;;;;;13.50;12.10;;;7.70;1.00;;;;;;5097551;28;20637;-46
2022/11/30 05:00:11;;;;;;;15.70;12.97;;;7.70;1.00;;;;;;5097760;28;20542;-42
2022/11/30 05:02:36;;;;;;;13.83;12.13;;;7.70;1.00;;;;;;5097304;28;20418;-45
2022/11/30 05:05:02;;;;;;;13.17;11.87;;;7.70;1.00;;;;;;5096980;28;20766;-44
2022/11/30 05:07:28;;;;;;;15.60;12.67;;;7.70;1.00;;;;;;5096889;28;20172;-46
2022/11/30 05:09:53;;;;;;;13.13;11.03;;;7.70;1.00;;;;;;5094788;28;20176;-42
2022/11/30 05:12:19;;;;;;;19.40;12.20;;;7.70;1.00;;;;;;5093866;28;20475;-43
2022/11/30 05:14:45;;;;;;;13.03;11.20;;;7.70;1.00;;;;;;5076113;28;20471;-44
2022/11/30 05:17:10;;;;;;;13.77;12.40;;;7.70;1.00;;;;;;5095256;28;20196;-42
2022/11/30 05:19:36;;;;;;;11.33;10.13;;;7.60;1.00;;;;;;5094090;28;20176;-43
2022/11/30 05:22:02;;;;;;;12.43;10.83;;;7.70;1.00;;;;;;5093039;28;20204;-44
2022/11/30 05:24:27;;;;;;;11.67;10.23;;;7.70;1.00;;;;;;5093159;28;20176;-44
2022/11/30 05:26:53;;;;;;;15.40;11.87;;;7.70;1.00;;;;;;5093742;28;20421;-44
2022/11/30 05:29:18;;;;;;;17.03;12.20;;;7.70;1.00;;;;;;5091378;28;20176;-43
2022/11/30 05:31:44;;;;;;;13.10;11.43;;;7.70;1.00;;;;;;5091027;28;20176;-47
2022/11/30 05:34:10;;;;;;;13.00;11.03;;;7.70;1.00;;;;;;5093609;28;20180;-42
2022/11/30 05:36:35;;;;;;;13.20;10.70;;;7.70;1.00;;;;;;5090245;28;20578;-42
2022/11/30 05:39:01;;;;;;;12.97;11.33;;;7.70;1.00;;;;;;5086956;28;20280;-44
2022/11/30 05:41:27;;;;;;;13.83;11.10;;;7.70;1.00;;;;;;5089430;28;20261;-42
2022/11/30 05:43:52;;;;;;;12.10;10.33;;;7.70;1.00;;;;;;5088029;28;20172;-41
2022/11/30 05:46:18;;;;;;;13.70;11.20;;;7.70;1.00;;;;;;5090090;28;20169;-44
2022/11/30 05:48:43;;;;;;;12.87;11.50;;;7.70;1.00;;;;;;5088991;28;20236;-45
2022/11/30 05:51:14;;;;;;;13.40;11.00;;;7.70;1.00;;;;;;5090381;28;20225;-43
2022/11/30 05:53:41;;;;;;;13.97;11.50;;;7.70;1.00;;;;;;5092200;28;20180;-45
2022/11/30 05:56:09;;;;;;;12.53;10.50;;;7.70;1.00;;;;;;5074533;28;20479;-45
2022/11/30 05:58:35;;;;;;;13.10;10.80;;;7.70;1.00;;;;;;5090212;28;20449;-44
2022/11/30 06:01:01;;;;;;;12.47;10.23;;;7.70;1.00;;;;;;5094455;28;20478;-43
2022/11/30 06:03:31;;;;;;;12.97;10.73;;;7.70;1.00;;;;;;5092502;28;20188;-45
2022/11/30 06:05:57;;;;;;;12.73;11.17;;;7.70;1.00;;;;;;5092693;28;20173;-43
2022/11/30 06:08:24;;;;;;;12.73;10.47;;;7.70;1.00;;;;;;5093198;28;20415;-42
2022/11/30 06:10:49;;;;;;;14.73;11.60;;;7.70;1.00;;;;;;5092770;28;20418;-43
2022/11/30 06:13:16;;;;;;;11.03;9.93;;;7.70;1.00;;;;;;5093229;28;20418;-43
2022/11/30 06:15:42;;;;;;;12.30;10.97;;;7.70;1.00;;;;;;5094466;28;20266;-43
2022/11/30 06:18:10;;;;;;;14.50;12.83;;;7.70;1.00;;;;;;5090579;28;20517;-43
2022/11/30 06:20:36;;;;;;;13.27;11.50;;;7.70;1.00;;;;;;5094248;28;20552;-43
2022/11/30 06:23:02;;;;;;;14.50;12.23;;;7.70;1.00;;;;;;5094110;28;20410;-42
2022/11/30 06:25:28;;;;;;;11.90;10.60;;;7.70;1.00;;;;;;5083909;28;20499;-43
2022/11/30 06:27:54;;;;;;;14.50;12.20;;;7.70;1.00;;;;;;5075120;28;20178;-43
2022/11/30 06:30:20;;;;;;;12.53;11.27;;;7.70;1.00;;;;;;5070816;28;20427;-43
2022/11/30 06:32:47;;;;;;;14.57;12.37;;;7.70;1.00;;;;;;5077313;28;20450;-42
2022/11/30 06:35:13;;;;;;;15.50;13.17;;;7.70;1.00;;;;;;5091411;28;20548;-42
2022/11/30 06:37:39;;;;;;;14.30;12.50;;;7.70;1.00;;;;;;5092556;28;20557;-44
2022/11/30 06:40:05;;;;;;;15.70;13.10;;;7.70;1.00;;;;;;5094553;28;20915;-42
2022/11/30 06:42:31;;;;;;;15.57;12.63;;;7.70;1.00;;;;;;5093302;28;20514;-41
2022/11/30 06:44:57;;;;;;;18.63;13.47;;;7.70;1.00;;;;;;5089898;28;20820;-44
2022/11/30 06:47:23;;;;;;;15.20;13.23;;;7.70;1.00;;;;;;5091008;28;20234;-43
2022/11/30 06:49:49;;;;;;;14.83;12.60;;;7.70;1.00;;;;;;5090040;28;20732;-43
2022/11/30 06:52:15;;;;;;;14.80;13.20;;;7.70;1.00;;;;;;5089693;28;20750;-44
2022/11/30 06:54:40;;;;;;;16.63;14.27;;;7.70;1.00;;;;;;5089964;28;20207;-46
2022/11/30 06:57:06;;;;;;;14.67;12.43;;;7.70;1.00;;;;;;5090999;28;20232;-44
2022/11/30 06:59:31;;;;;;;14.00;12.50;;;7.70;1.00;;;;;;5090759;28;20468;-48
2022/11/30 07:01:57;;;;;;;14.73;13.03;;;7.70;1.00;;;;;;5090183;28;20316;-43
2022/11/30 07:04:23;;;;;;;16.00;13.03;;;7.70;1.00;;;;;;5087741;28;20187;-43
2022/11/30 07:06:49;;;;;;;14.67;12.70;;;7.70;1.00;;;;;;5089568;28;20192;-46
2022/11/30 07:09:14;;;;;;;15.80;12.80;;;7.70;1.00;;;;;;5090732;28;20191;-45
2022/11/30 07:11:40;;;;;;;15.47;12.63;;;7.70;1.00;;;;;;5092597;28;20185;-42
2022/11/30 07:14:06;;;;;;;15.47;12.30;;;7.80;1.00;;;;;;5091489;28;20185;-43
2022/11/30 07:16:31;;;;;;;15.80;13.83;;;7.80;1.00;;;;;;5091325;28;20207;-42
2022/11/30 07:18:57;;;;;;;14.70;12.90;;;7.80;1.00;;;;;;5091386;28;20304;-43
2022/11/30 07:21:23;;;;;;;14.73;12.30;;;7.80;1.00;;;;;;5094750;28;20502;-45
2022/11/30 07:26:33;;;;;;;14.83;13.23;;;7.80;1.00;;;;;;5094276;28;20413;-47
2022/11/30 07:28:59;;;;;;;17.23;13.90;;;7.90;99.90;;;;;;5094107;28;20704;-42
2022/11/30 07:31:29;;;;;;;15.80;13.83;;;7.90;99.90;;;;;;5092516;28;20254;-41
2022/11/30 07:33:56;;;;;;;14.53;12.87;;;8.00;99.90;;;;;;5091148;28;20267;-42
2022/11/30 07:36:24;;;;;;;18.67;13.60;;;8.00;99.90;;;;;;5091588;28;20488;-42
2022/11/30 07:38:50;;;;;;;17.90;14.33;;;8.10;99.90;;;;;;5092401;28;20410;-43
2022/11/30 07:41:16;;;;;;;17.10;14.60;;;8.20;99.90;;;;;;5088779;28;20466;-41
2022/11/30 07:43:42;;;;;;;17.77;15.40;;;8.20;99.90;;;;;;5091533;28;20428;-44
2022/11/30 07:46:10;;;;;;;19.57;16.30;;;8.30;99.90;;;;;;5092625;28;20203;-43
2022/11/30 07:48:36;;;;;;;17.90;15.03;;;8.50;42.80;;;;;;5092111;28;20271;-42
2022/11/30 07:51:06;;;;;;;17.20;14.10;;;8.50;1.00;;;;;;5090671;28;20536;-43
2022/11/30 07:53:32;;;;;;;16.57;14.30;;;8.60;1.00;;;;;;5094472;28;20450;-44
2022/11/30 07:56:06;;;;;;;17.10;14.53;;;8.70;1.00;;;;;;5094194;28;20517;-43
2022/11/30 07:58:32;;;;;;;4.20;3.20;;;8.70;99.90;;;;;;5095480;28;20755;-44
2022/11/30 08:01:06;;;;;;;8.37;5.20;;;9.40;1.00;;;;;;5095242;28;20499;-44
2022/11/30 08:03:32;;;;;;;12.27;7.00;;;10.70;1.00;;;;;;5095827;28;20778;-45
2022/11/30 08:06:02;;;;;;;8.60;6.60;;;11.70;1.00;;;;;;5095207;28;20442;-45
2022/11/30 08:08:32;;;;;;;8.50;6.40;;;12.30;1.00;;;;;;5095476;28;20433;-46
2022/11/30 08:10:58;;;;;;;9.27;7.70;;;12.90;1.00;;;;;;5094749;28;20697;-44
2022/11/30 08:13:24;;;;;;;8.40;6.67;;;13.40;99.90;;;;;;5094298;28;20444;-43
2022/11/30 08:15:50;;;;;;;9.37;7.50;;;13.90;1.00;;;;;;5094007;28;20418;-49
2022/11/30 08:18:16;;;;;;;7.00;6.30;;;14.30;1.00;;;;;;5094028;28;20257;-44
2022/11/30 08:20:42;;;;;;;10.40;8.33;;;14.60;1.00;;;;;;5094274;28;20880;-44
2022/11/30 08:23:07;;;;;;;12.00;8.13;;;14.80;94.20;;;;;;5094510;28;20497;-43
2022/11/30 08:25:34;;;;;;;9.10;7.77;;;15.00;99.90;;;;;;5094487;28;20235;-43
2022/11/30 08:27:59;;;;;;;9.30;8.10;;;15.20;1.00;;;;;;5095154;28;20367;-45
2022/11/30 08:30:25;;;;;;;10.10;7.63;;;15.40;99.90;;;;;;5093455;28;20441;-48
2022/11/30 08:32:51;;;;;;;8.70;7.80;;;15.50;1.00;;;;;;5094809;28;20184;-43
2022/11/30 08:35:16;;;;;;;8.90;8.00;;;15.60;99.90;;;;;;5094833;28;20183;-44
2022/11/30 08:37:42;;;;;;;8.70;7.80;;;15.60;99.90;;;;;;5093795;28;20180;-44
2022/11/30 08:40:08;;;;;;;8.90;8.00;;;15.70;99.90;;;;;;5091965;28;20532;-44
2022/11/30 08:42:34;;;;;;;7.90;7.20;;;15.70;1.00;;;;;;5093796;28;20179;-45
2022/11/30 08:45:00;;;;;;;8.60;7.63;;;15.80;1.00;;;;;;5094614;28;20428;-45
2022/11/30 08:47:25;;;;;;;8.87;7.93;;;16.00;99.90;;;;;;5093842;28;20526;-45
2022/11/30 08:49:51;;;;;;;10.40;9.40;;;16.00;10.30;;;;;;5093286;28;20207;-45
2022/11/30 08:52:17;;;;;;;12.43;11.23;;;15.70;1.00;;;;;;5091182;28;20214;-45
2022/11/30 08:54:44;;;;;;;14.83;13.33;;;15.30;99.90;;;;;;5093945;28;20426;-44
2022/11/30 08:57:10;;;;;;;15.27;13.77;;;14.80;42.10;;;;;;5093902;28;20236;-43
2022/11/30 08:59:36;;;;;;;14.50;13.10;;;14.40;1.00;;;;;;5094316;28;20716;-44
2022/11/30 09:02:01;;;;;;;14.50;13.00;;;14.00;30.70;;;;;;5094554;28;20477;-45
2022/11/30 09:04:27;;;;;;;16.30;14.70;;;13.80;53.90;;;;;;5092801;28;20418;-45
2022/11/30 09:06:57;;;;;;;15.43;13.80;;;13.60;97.10;;;;;;5094111;28;20418;-44
2022/11/30 09:09:24;;;;;;;16.40;14.80;;;13.40;26.70;;;;;;5094195;28;20184;-43
2022/11/30 09:11:50;;;;;;;16.60;14.80;;;13.10;1.00;;;;;;5094545;28;21025;-42
2022/11/30 09:14:16;;;;;;;16.50;14.70;;;12.90;1.00;;;;;;5094921;28;20430;-42
2022/11/30 09:16:41;;;;;;;16.87;14.53;;;12.70;1.00;;;;;;5095024;28;20180;-42
2022/11/30 09:19:08;;;;;;;15.90;13.63;;;12.60;1.00;;;;;;5094566;28;20518;-41
2022/11/30 09:21:35;;;;;;;14.67;13.17;;;12.50;1.00;;;;;;5094791;28;20211;-43
2022/11/30 09:24:01;;;;;;;17.07;15.27;;;12.40;44.20;;;;;;5095230;28;20457;-42
2022/11/30 09:26:29;;;;;;;15.17;13.57;;;12.40;52.80;;;;;;5095781;28;20423;-42
2022/11/30 09:28:55;;;;;;;16.47;14.23;;;12.30;65.70;;;;;;5095492;28;20172;-43
2022/11/30 09:31:25;;;;;;;13.97;12.57;;;12.30;52.00;;;;;;5097254;28;20491;-43
2022/11/30 09:33:51;;;;;;;15.70;14.00;;;12.20;99.90;;;;;;5096381;28;20176;-42
2022/11/30 09:36:19;;;;;;;15.03;13.33;;;12.20;99.90;;;;;;5097455;28;20969;-41
2022/11/30 09:38:46;;;;;;;16.33;14.27;;;12.20;99.90;;;;;;5096569;28;20418;-41
2022/11/30 09:41:33;;;;;;;15.33;13.73;;;12.20;99.90;;;;;;5093645;28;20468;-42
2022/11/30 09:44:36;;;;;;;14.63;13.03;;;12.10;99.90;;;;;;5095175;28;20455;-44
2022/11/30 09:47:23;;;;;;;15.73;14.07;;;12.10;99.90;;;;;;5094813;28;20509;-42
2022/11/30 09:49:48;;;;;;;15.73;13.80;;;12.00;99.90;;;;;;5095307;28;20430;-42
2022/11/30 09:52:33;;;;;;;15.93;13.70;;;12.00;99.90;;;;;;5092837;28;20422;-41
2022/11/30 09:55:05;;;;;;;16.00;13.40;;;12.00;99.90;;;;;;5095687;28;20497;-42
2022/11/30 09:57:53;;;;;;;13.83;12.43;;;12.00;99.90;;;;;;5094643;28;20491;-44
2022/11/30 10:00:20;;;;;;;15.47;13.87;;;12.00;99.90;;;;;;5094816;28;20472;-44
2022/11/30 10:02:52;;;;;;;14.63;13.23;;;12.10;99.90;;;;;;5094795;28;20434;-43
2022/11/30 10:05:51;;;;;;;14.50;13.00;;;12.20;99.90;;;;;;5096374;28;20509;-43
2022/11/30 10:08:29;;;;;;;15.07;13.47;;;12.40;86.40;;;;;;5073911;28;20423;-42
2022/11/30 10:11:23;;;;;;;12.87;11.53;;;12.60;2.40;;;;;;5095880;28;20426;-42
2022/11/30 10:14:16;;;;;;;14.27;12.77;;;12.60;1.00;;;;;;5094195;28;20453;-43
2022/11/30 10:17:16;;;;;;;14.53;12.60;;;12.70;1.00;;;;;;5095779;28;20406;-42
2022/11/30 10:20:12;;;;;;;13.40;12.00;;;12.70;1.00;;;;;;5096297;28;20746;-44
2022/11/30 10:22:50;;;;;;;12.80;11.53;;;12.70;1.00;;;;;;5093317;28;20464;-42
2022/11/30 10:25:24;;;;;;;12.90;11.60;;;12.50;1.00;;;;;;5094998;28;20468;-41
2022/11/30 10:27:51;;;;;;;13.37;11.60;;;12.50;1.00;;;;;;5094372;28;20862;-42
2022/11/30 10:30:23;;;;;;;13.67;12.23;;;12.40;1.00;;;;;;5094748;28;20415;-41
2022/11/30 10:32:54;;;;;;;12.30;10.90;;;12.40;1.00;;;;;;5095192;28;20919;-42
2022/11/30 10:35:48;;;;;;;12.53;11.23;;;12.40;1.00;;;;;;5095194;28;20414;-41
2022/11/30 10:38:25;;;;;;;11.30;9.93;;;12.40;1.00;;;;;;5095110;28;20479;-42
2022/11/30 10:41:04;;;;;;;11.83;10.60;;;12.50;1.00;;;;;;5095750;28;20462;-45
2022/11/30 10:43:32;;;;;;;10.70;9.60;;;12.50;1.00;;;;;;5095566;28;20832;-43
2022/11/30 10:45:59;;;;;;;10.93;9.87;;;12.50;1.00;;;;;;5078285;28;20434;-42
2022/11/30 10:48:30;;;;;;;10.23;8.43;;;12.50;1.00;;;;;;5078062;28;20728;-42
2022/11/30 10:50:57;;;;;;;10.40;9.30;;;12.60;1.00;;;;;;5093022;28;20439;-42
2022/11/30 10:53:23;;;;;;;10.43;9.30;;;12.60;1.00;;;;;;5074671;28;20426;-43
2022/11/30 10:55:59;;;;;;;9.70;8.70;;;12.60;1.00;;;;;;5092694;28;20437;-43
2022/11/30 10:58:43;;;;;;;11.60;10.50;;;12.60;1.00;;;;;;5093048;28;20486;-43
2022/11/30 11:01:27;;;;;;;12.60;11.00;;;12.70;1.00;;;;;;5095786;28;20538;-44
2022/11/30 11:04:13;;;;;;;12.40;11.10;;;12.70;1.00;;;;;;5097966;28;20756;-42
2022/11/30 11:06:45;;;;;;;9.23;8.30;;;12.80;99.90;;;;;;5081027;28;20418;-42
2022/11/30 11:09:30;;;;;;;7.67;5.97;;;12.80;1.00;;;;;;5098135;28;20820;-43
2022/11/30 11:11:58;;;;;;;10.20;8.90;;;13.10;99.90;;;;;;5095926;28;20414;-44
2022/11/30 11:14:26;;;;;;;10.63;9.20;;;13.40;99.90;;;;;;5095164;28;20745;-43
2022/11/30 11:17:03;;;;;;;10.93;9.83;;;13.50;99.90;;;;;;5098598;28;20732;-41
2022/11/30 11:19:40;;;;;;;11.23;10.10;;;13.40;99.90;;;;;;5096231;28;20440;-44
2022/11/30 11:22:26;;;;;;;11.53;10.40;;;13.30;1.00;;;;;;5097132;28;20759;-44
2022/11/30 11:25:19;;;;;;;11.70;10.50;;;13.10;99.90;;;;;;5087938;28;20449;-42
2022/11/30 11:27:53;;;;;;;12.87;11.37;;;12.90;22.40;;;;;;5078212;28;20399;-42
2022/11/30 11:30:25;;;;;;;12.40;10.70;;;12.70;1.00;;;;;;5083572;28;20442;-42
2022/11/30 11:33:12;;;;;;;12.80;10.73;;;12.60;1.00;;;;;;5094302;28;20529;-42
2022/11/30 11:36:13;;;;;;;12.70;10.87;;;12.40;1.00;;;;;;5092337;28;20529;-42
2022/11/30 11:38:49;;;;;;;13.83;12.33;;;12.30;1.00;;;;;;5076874;28;20449;-42
2022/11/30 11:41:19;;;;;;;11.70;10.50;;;12.10;1.00;;;;;;5092774;28;21060;-42
2022/11/30 11:43:59;;;;;;;12.47;11.17;;;12.10;1.00;;;;;;5088095;28;20771;-42
2022/11/30 11:46:25;;;;;;;12.93;11.10;;;12.00;1.00;;;;;;5094555;28;20449;-44
2022/11/30 11:49:04;;;;;;;10.83;9.73;;;11.90;1.00;;;;;;5089647;28;20435;-42
2022/11/30 11:51:34;;;;;;;13.20;10.67;;;11.90;1.00;;;;;;5076116;28;20454;-43
2022/11/30 11:54:20;;;;;;;5.20;4.70;;;11.90;1.00;;;;;;5076183;28;20419;-43
2022/11/30 11:56:46;;;;;;;8.47;6.60;;;12.00;28.00;;;;;;5076598;28;20478;-45
2022/11/30 11:59:16;;;;;;;7.03;5.90;;;13.00;99.90;;;;;;5093125;28;20916;-43
2022/11/30 12:01:48;;;;;;;9.33;7.93;;;13.70;1.00;;;;;;5093412;28;20454;-43
2022/11/30 12:04:36;;;;;;;9.00;8.10;;;14.20;1.00;;;;;;5095030;28;20418;-42
2022/11/30 12:07:09;;;;;;;10.40;9.07;;;14.10;99.90;;;;;;5074460;28;20464;-41
2022/11/30 12:09:40;;;;;;;9.93;8.93;;;14.00;99.90;;;;;;5073519;28;20419;-41
2022/11/30 12:12:11;;;;;;;9.57;8.57;;;13.70;99.90;;;;;;5075558;28;20515;-42
2022/11/30 12:14:36;;;;;;;11.13;10.03;;;13.50;53.20;;;;;;5094908;28;20497;-42
2022/11/30 12:17:40;;;;;;;10.43;9.27;;;13.20;1.00;;;;;;5095316;28;20832;-41
2022/11/30 12:20:32;;;;;;;11.77;10.43;;;13.00;99.90;;;;;;5088571;28;20192;-41
2022/11/30 12:23:04;;;;;;;10.83;9.70;;;12.70;99.90;;;;;;5070499;28;20425;-42
2022/11/30 12:25:35;;;;;;;13.43;10.17;;;12.50;99.90;;;;;;5087034;28;20459;-42
2022/11/30 12:28:39;;;;;;;10.90;9.07;;;12.40;99.90;;;;;;5071667;28;20406;-42
2022/11/30 12:31:16;;;;;;;10.03;9.03;;;12.20;57.10;;;;;;5074960;28;20643;-44
2022/11/30 12:34:00;;;;;;;10.77;9.30;;;12.10;5.00;;;;;;5089568;28;20758;-42
2022/11/30 12:36:42;;;;;;;10.00;8.93;;;12.00;1.00;;;;;;5094694;28;20403;-43
2022/11/30 12:39:19;;;;;;;10.27;8.80;;;11.90;1.00;;;;;;5092321;28;20414;-41
2022/11/30 12:42:02;;;;;;;10.07;8.93;;;11.80;1.00;;;;;;5090637;28;20594;-42
2022/11/30 12:44:37;;;;;;;11.57;8.90;;;11.80;1.00;;;;;;5091813;28;21005;-42
2022/11/30 12:47:37;;;;;;;11.70;9.47;;;11.80;1.00;;;;;;5088740;28;20421;-44
2022/11/30 12:50:18;;;;;;;10.50;8.63;;;11.70;1.00;;;;;;5088633;28;20494;-42
2022/11/30 12:53:06;;;;;;;9.17;8.20;;;11.70;1.00;;;;;;5092769;28;20701;-46
2022/11/30 12:55:53;;;;;;;11.30;8.50;;;11.70;1.00;;;;;;5094191;28;20525;-42
2022/11/30 12:58:54;;;;;;;8.27;7.43;;;11.70;1.00;;;;;;5092703;28;20850;-42
2022/11/30 13:01:20;;;;;;;11.53;8.20;;;11.70;1.00;;;;;;5079446;28;20500;-40
2022/11/30 13:04:27;;;;;;;8.80;7.47;;;11.70;1.00;;;;;;5090047;28;20422;-41